createdAt,value
2018-04-14T00:01:59.013Z,100451.03
2018-04-14T00:04:26.486Z,100453.13
2018-04-14T00:06:53.942Z,100454.06
2018-04-14T00:09:21.407Z,100434.69
2018-04-14T00:11:48.882Z,100426.00
2018-04-14T00:14:16.376Z,100432.16
2018-04-14T00:16:43.886Z,100433.76
2018-04-14T00:19:11.391Z,100434.20
2018-04-14T00:21:38.873Z,100424.38
2018-04-14T00:24:06.385Z,100412.53
2018-04-14T00:26:33.871Z,100411.00
2018-04-14T00:29:01.409Z,100400.22
2018-04-14T00:31:28.903Z,100407.61
2018-04-14T00:33:56.393Z,100411.49
2018-04-14T00:36:23.911Z,100399.55
2018-04-14T00:38:51.432Z,100407.88
2018-04-14T00:41:18.937Z,100403.71
2018-04-14T00:43:46.441Z,100396.20
2018-04-14T00:46:13.944Z,100395.25
2018-04-14T00:48:41.410Z,100398.78
2018-04-14T00:51:08.902Z,100405.70
2018-04-14T00:53:47.389Z,100399.14
2018-04-14T00:56:14.878Z,100393.91
2018-04-14T00:58:42.351Z,100399.37
2018-04-14T01:01:09.851Z,100395.57
2018-04-14T01:03:37.363Z,100398.73
2018-04-14T01:06:04.859Z,100399.79
2018-04-14T01:08:32.388Z,100398.47
2018-04-14T01:10:59.887Z,100395.94
2018-04-14T01:13:27.367Z,100395.63
2018-04-14T01:15:54.872Z,100394.62
2018-04-14T01:18:22.381Z,100402.13
2018-04-14T01:20:50.023Z,100404.80
2018-04-14T01:23:17.542Z,100401.82
2018-04-14T01:25:45.133Z,100387.48
2018-04-14T01:28:12.638Z,100382.78
2018-04-14T01:30:40.207Z,100373.00
2018-04-14T01:33:07.696Z,100374.00
2018-04-14T01:35:35.171Z,100370.92
2018-04-14T01:38:02.667Z,100365.54
2018-04-14T01:40:30.141Z,100363.82
2018-04-14T01:42:57.623Z,100366.55
2018-04-14T01:45:25.100Z,100364.45
2018-04-14T01:47:52.589Z,100369.70
2018-04-14T01:50:20.121Z,100374.49
2018-04-14T01:52:47.666Z,100378.44
2018-04-14T01:55:15.164Z,100372.02
2018-04-14T01:57:42.672Z,100376.31
2018-04-14T02:00:10.168Z,100368.53
2018-04-14T02:02:37.666Z,100371.19
2018-04-14T02:05:05.178Z,100375.80
2018-04-14T02:07:32.655Z,100371.19
2018-04-14T02:10:00.140Z,100371.88
2018-04-14T02:12:27.620Z,100372.86
2018-04-14T02:14:55.244Z,100369.97
2018-04-14T02:17:22.707Z,100369.80
2018-04-14T02:19:50.175Z,100379.52
2018-04-14T02:22:17.665Z,100370.20
2018-04-14T02:24:45.124Z,100378.20
2018-04-14T02:27:12.575Z,100377.98
2018-04-14T02:29:40.089Z,100375.91
2018-04-14T02:32:07.692Z,100375.40
2018-04-14T02:34:35.239Z,100380.06
2018-04-14T02:37:02.738Z,100382.64
2018-04-14T02:39:30.192Z,100386.70
2018-04-14T02:41:57.697Z,100383.86
2018-04-14T02:44:25.194Z,100379.59
2018-04-14T02:46:52.728Z,100395.61
2018-04-14T02:49:20.272Z,100392.53
2018-04-14T02:51:47.751Z,100400.05
2018-04-14T02:54:15.304Z,100396.75
2018-04-14T02:56:42.860Z,100397.47
2018-04-14T02:59:10.433Z,100398.00
2018-04-14T03:01:38.007Z,100403.17
2018-04-14T03:04:05.497Z,100408.50
2018-04-14T03:06:32.997Z,100413.25
2018-04-14T03:09:00.477Z,100418.73
2018-04-14T03:11:27.955Z,100420.16
2018-04-14T03:13:55.490Z,100424.23
2018-04-14T03:16:22.984Z,100424.28
2018-04-14T03:18:50.517Z,100427.31
2018-04-14T03:21:17.980Z,100431.55
2018-04-14T03:23:45.506Z,100426.41
2018-04-14T03:26:13.015Z,100432.47
2018-04-14T03:28:40.498Z,100429.22
2018-04-14T03:31:08.047Z,100433.60
2018-04-14T03:33:35.559Z,100434.55
2018-04-14T03:36:03.071Z,100437.36
2018-04-14T03:38:30.527Z,100438.13
2018-04-14T03:40:57.985Z,100434.01
2018-04-14T03:43:25.499Z,100441.12
2018-04-14T03:45:52.989Z,100447.19
2018-04-14T03:48:20.449Z,100436.92
2018-04-14T03:50:47.958Z,100445.11
2018-04-14T03:53:15.449Z,100455.24
2018-04-14T03:55:42.964Z,100458.00
2018-04-14T03:58:10.466Z,100467.55
2018-04-14T04:00:37.987Z,100475.95
2018-04-14T04:03:05.489Z,100473.75
2018-04-14T04:05:32.977Z,100469.12
2018-04-14T04:08:00.447Z,100479.16
2018-04-14T04:10:27.976Z,100485.64
2018-04-14T04:12:55.477Z,100493.86
2018-04-14T04:15:22.949Z,100499.11
2018-04-14T04:17:50.428Z,100504.44
2018-04-14T04:23:36.494Z,100511.83
2018-04-14T04:26:03.963Z,100512.64
2018-04-14T04:28:31.454Z,100523.13
2018-04-14T04:30:58.948Z,100522.48
2018-04-14T04:33:26.412Z,100531.11
2018-04-14T04:35:53.868Z,100532.82
2018-04-14T04:38:21.393Z,100543.75
2018-04-14T04:40:48.896Z,100554.78
2018-04-14T04:43:16.356Z,100556.36
2018-04-14T04:45:43.869Z,100555.94
2018-04-14T04:48:11.337Z,100572.27
2018-04-14T04:50:38.833Z,100567.25
2018-04-14T04:53:06.372Z,100585.83
2018-04-14T04:55:33.847Z,100582.70
2018-04-14T04:58:01.377Z,100587.24
2018-04-14T05:00:28.880Z,100588.91
2018-04-14T05:02:56.348Z,100595.34
2018-04-14T05:05:23.903Z,100604.48
2018-04-14T05:07:51.420Z,100604.89
2018-04-14T05:10:18.916Z,100611.73
2018-04-14T05:12:46.375Z,100618.39
2018-04-14T05:15:13.876Z,100621.45
2018-04-14T05:17:41.368Z,100628.42
2018-04-14T05:20:08.955Z,100636.97
2018-04-14T05:22:36.510Z,100638.52
2018-04-14T05:25:04.000Z,100647.94
2018-04-14T05:27:31.472Z,100655.58
2018-04-14T05:29:58.968Z,100659.17
2018-04-14T05:32:26.496Z,100664.47
2018-04-14T05:34:53.961Z,100666.48
2018-04-14T05:37:21.458Z,100673.09
2018-04-14T05:39:48.988Z,100669.91
2018-04-14T05:42:16.485Z,100675.20
2018-04-14T05:44:44.004Z,100685.30
2018-04-14T05:47:11.475Z,100697.66
2018-04-14T05:49:38.923Z,100695.97
2018-04-14T05:52:06.391Z,100696.47
2018-04-14T05:54:33.847Z,100706.69
2018-04-14T05:57:01.335Z,100713.12
2018-04-14T05:59:28.787Z,100712.81
2018-04-14T06:01:56.240Z,100715.43
2018-04-14T06:04:23.705Z,100718.33
2018-04-14T06:06:51.202Z,100722.11
2018-04-14T06:09:18.681Z,100728.85
2018-04-14T06:11:46.151Z,100728.40
2018-04-14T06:14:13.737Z,100744.43
2018-04-14T06:16:41.216Z,100737.99
2018-04-14T06:19:08.669Z,100743.90
2018-04-14T06:21:36.158Z,100747.22
2018-04-14T06:24:03.689Z,100753.65
2018-04-14T06:26:31.177Z,100747.20
2018-04-14T06:28:58.739Z,100753.30
2018-04-14T06:31:26.235Z,100764.55
2018-04-14T06:33:53.758Z,100767.89
2018-04-14T06:36:21.246Z,100772.16
2018-04-14T06:38:48.737Z,100775.56
2018-04-14T06:41:16.187Z,100778.94
2018-04-14T06:43:43.717Z,100785.75
2018-04-14T06:46:11.207Z,100787.17
2018-04-14T06:48:38.735Z,100797.08
2018-04-14T06:51:06.224Z,100799.38
2018-04-14T06:53:33.710Z,100808.85
2018-04-14T06:56:01.171Z,100810.55
2018-04-14T06:58:28.664Z,100814.52
2018-04-14T07:00:56.192Z,100818.03
2018-04-14T07:03:23.648Z,100817.93
2018-04-14T07:05:51.168Z,100825.34
2018-04-14T07:08:18.627Z,100819.87
2018-04-14T07:10:46.133Z,100829.47
2018-04-14T07:13:13.688Z,100836.84
2018-04-14T07:15:41.154Z,100834.79
2018-04-14T07:18:08.670Z,100843.11
2018-04-14T07:20:36.161Z,100849.72
2018-04-14T07:23:03.638Z,100842.86
2018-04-14T07:25:31.184Z,100850.05
2018-04-14T07:27:58.682Z,100850.24
2018-04-14T07:30:26.238Z,100860.17
2018-04-14T07:32:53.753Z,100860.11
2018-04-14T07:35:21.266Z,100865.23
2018-04-14T07:37:48.768Z,100867.28
2018-04-14T07:40:16.812Z,100879.04
2018-04-14T07:42:44.278Z,100882.41
2018-04-14T07:45:11.778Z,100884.55
2018-04-14T07:47:39.347Z,100885.19
2018-04-14T07:50:06.831Z,100889.03
2018-04-14T07:52:34.362Z,100897.52
2018-04-14T07:55:01.941Z,100897.67
2018-04-14T07:57:29.407Z,100904.80
2018-04-14T07:59:56.905Z,100900.89
2018-04-14T08:02:24.401Z,100900.21
2018-04-14T08:04:51.883Z,100909.76
2018-04-14T08:07:19.358Z,100916.63
2018-04-14T08:09:46.820Z,100917.30
2018-04-14T08:12:14.309Z,100926.16
2018-04-14T08:14:41.828Z,100930.95
2018-04-14T08:17:09.361Z,100934.83
2018-04-14T08:19:36.847Z,100932.50
2018-04-14T08:22:04.329Z,100934.77
2018-04-14T08:24:31.910Z,100940.77
2018-04-14T08:26:59.421Z,100942.13
2018-04-14T08:29:26.926Z,100941.81
2018-04-14T08:31:54.413Z,100943.80
2018-04-14T08:34:21.928Z,100946.02
2018-04-14T08:36:49.488Z,100942.81
2018-04-14T08:39:17.075Z,100941.42
2018-04-14T08:41:44.577Z,100950.26
2018-04-14T08:44:12.190Z,100951.04
2018-04-14T08:46:39.687Z,100943.30
2018-04-14T08:49:07.181Z,100947.28
2018-04-14T08:51:34.695Z,100957.31
2018-04-14T08:54:02.196Z,100957.80
2018-04-14T08:56:30.636Z,100961.86
2018-04-14T08:58:58.149Z,100968.47
2018-04-14T09:01:25.619Z,100962.08
2018-04-14T09:03:53.110Z,100962.63
2018-04-14T09:06:20.626Z,100963.72
2018-04-14T09:08:48.093Z,100959.05
2018-04-14T09:11:15.583Z,100969.67
2018-04-14T09:13:43.072Z,100967.96
2018-04-14T09:16:10.682Z,100971.09
2018-04-14T09:18:38.335Z,100979.90
2018-04-14T09:21:05.868Z,100985.38
2018-04-14T09:23:33.337Z,100974.13
2018-04-14T09:26:00.866Z,100974.89
2018-04-14T09:28:28.330Z,100976.59
2018-04-14T09:30:55.900Z,100975.19
2018-04-14T09:33:23.422Z,100980.41
2018-04-14T09:35:50.932Z,100982.00
2018-04-14T09:38:18.436Z,100985.00
2018-04-14T09:40:45.937Z,100991.41
2018-04-14T09:43:13.438Z,101004.98
2018-04-14T09:45:40.947Z,100998.55
2018-04-14T09:48:08.481Z,101011.71
2018-04-14T09:50:35.947Z,101011.96
2018-04-14T09:53:03.400Z,101017.55
2018-04-14T09:55:30.995Z,101014.54
2018-04-14T09:57:58.480Z,101016.51
2018-04-14T10:00:27.826Z,101011.05
2018-04-14T10:03:00.410Z,101013.58
2018-04-14T10:05:27.827Z,101014.31
2018-04-14T10:07:55.308Z,101020.73
2018-04-14T10:10:22.859Z,101019.48
2018-04-14T10:12:50.283Z,101019.39
2018-04-14T10:15:17.751Z,101020.81
2018-04-14T10:17:45.257Z,101022.84
2018-04-14T10:20:12.799Z,101019.77
2018-04-14T10:22:40.312Z,101020.00
2018-04-14T10:25:07.823Z,101033.98
2018-04-14T10:27:35.366Z,101026.00
2018-04-14T10:30:02.834Z,101023.05
2018-04-14T10:32:30.354Z,101025.17
2018-04-14T10:34:57.823Z,101031.62
2018-04-14T10:37:25.322Z,101033.52
2018-04-14T10:39:52.835Z,101024.09
2018-04-14T10:42:20.303Z,101026.81
2018-04-14T10:44:47.786Z,101023.19
2018-04-14T10:47:15.290Z,101033.13
2018-04-14T10:49:42.779Z,101037.17
2018-04-14T10:52:10.317Z,101031.31
2018-04-14T10:54:37.859Z,101033.21
2018-04-14T10:57:05.371Z,101036.28
2018-04-14T10:59:32.927Z,101041.02
2018-04-14T11:02:00.432Z,101040.17
2018-04-14T11:04:27.901Z,101048.30
2018-04-14T11:06:55.488Z,101041.28
2018-04-14T11:09:22.990Z,101043.19
2018-04-14T11:11:50.572Z,101039.13
2018-04-14T11:14:18.036Z,101037.63
2018-04-14T11:16:45.632Z,101032.59
2018-04-14T11:19:13.117Z,101030.09
2018-04-14T11:21:40.607Z,101031.05
2018-04-14T11:24:08.116Z,101025.02
2018-04-14T11:26:35.757Z,101022.95
2018-04-14T11:29:03.226Z,101021.05
2018-04-14T11:31:30.715Z,101023.06
2018-04-14T11:33:58.324Z,101023.27
2018-04-14T11:36:25.850Z,101023.05
2018-04-14T11:38:53.325Z,101018.42
2018-04-14T11:41:20.821Z,101023.52
2018-04-14T11:43:48.305Z,101027.91
2018-04-14T11:46:15.781Z,101030.52
2018-04-14T11:48:43.313Z,101034.36
2018-04-14T11:51:10.805Z,101035.48
2018-04-14T11:53:38.315Z,101030.39
2018-04-14T11:56:05.842Z,101032.30
2018-04-14T11:58:33.356Z,101028.19
2018-04-14T12:01:00.864Z,101029.80
2018-04-14T12:03:28.421Z,101028.48
2018-04-14T12:05:55.871Z,101025.15
2018-04-14T12:08:23.445Z,101024.88
2018-04-14T12:10:50.982Z,101027.14
2018-04-14T12:13:18.472Z,101029.36
2018-04-14T12:15:45.972Z,101037.95
2018-04-14T12:18:13.447Z,101050.65
2018-04-14T12:20:40.908Z,101054.23
2018-04-14T12:23:08.465Z,101050.58
2018-04-14T12:25:35.962Z,101054.57
2018-04-14T12:28:03.418Z,101059.70
2018-04-14T12:30:30.908Z,101076.81
2018-04-14T12:32:58.396Z,101091.16
2018-04-14T12:35:25.899Z,101097.80
2018-04-14T12:37:59.884Z,101095.51
2018-04-14T12:40:27.374Z,101093.20
2018-04-14T12:42:54.864Z,101092.97
2018-04-14T12:45:22.375Z,101094.23
2018-04-14T12:47:49.875Z,101091.05
2018-04-14T12:50:17.376Z,101091.11
2018-04-14T12:52:44.958Z,101086.58
2018-04-14T12:55:12.489Z,101094.19
2018-04-14T12:57:39.999Z,101099.36
2018-04-14T13:00:07.499Z,101101.08
2018-04-14T13:02:35.004Z,101105.86
2018-04-14T13:05:02.528Z,101096.81
2018-04-14T13:07:30.097Z,101092.73
2018-04-14T13:09:57.588Z,101092.61
2018-04-14T13:12:25.056Z,101091.66
2018-04-14T13:14:52.598Z,101099.19
2018-04-14T13:17:20.064Z,101103.65
2018-04-14T13:19:47.552Z,101106.06
2018-04-14T13:22:15.075Z,101097.38
2018-04-14T13:24:42.613Z,101093.55
2018-04-14T13:27:10.104Z,101082.33
2018-04-14T13:29:37.613Z,101093.14
2018-04-14T13:32:05.063Z,101084.00
2018-04-14T13:34:32.540Z,101086.44
2018-04-14T13:37:00.056Z,101089.33
2018-04-14T13:39:27.562Z,101091.30
2018-04-14T13:41:55.061Z,101094.76
2018-04-14T13:44:22.524Z,101089.56
2018-04-14T13:46:49.976Z,101083.95
2018-04-14T13:49:17.444Z,101087.37
2018-04-14T13:51:45.018Z,101084.84
2018-04-14T13:54:12.510Z,101082.20
2018-04-14T13:56:40.013Z,101082.64
2018-04-14T13:59:07.492Z,101080.65
2018-04-14T14:01:34.984Z,101087.65
2018-04-14T14:04:02.514Z,101082.54
2018-04-14T14:06:29.980Z,101082.50
2018-04-14T14:08:57.444Z,101085.34
2018-04-14T14:11:24.950Z,101080.91
2018-04-14T14:13:52.446Z,101082.09
2018-04-14T14:16:19.920Z,101075.20
2018-04-14T14:18:47.441Z,101072.00
2018-04-14T14:21:14.937Z,101072.19
2018-04-14T14:23:42.438Z,101071.97
2018-04-14T14:26:09.919Z,101074.92
2018-04-14T14:28:37.421Z,101068.92
2018-04-14T14:31:04.914Z,101069.20
2018-04-14T14:33:32.411Z,101072.52
2018-04-14T14:35:59.882Z,101069.98
2018-04-14T14:38:27.389Z,101065.58
2018-04-14T14:40:54.914Z,101067.36
2018-04-14T14:43:22.540Z,101073.60
2018-04-14T14:45:50.091Z,101076.69
2018-04-14T14:48:17.567Z,101075.49
2018-04-14T14:50:45.044Z,101077.11
2018-04-14T14:53:12.517Z,101071.80
2018-04-14T14:55:39.988Z,101080.69
2018-04-14T14:58:07.508Z,101078.13
2018-04-14T15:00:35.074Z,101075.58
2018-04-14T15:03:02.573Z,101085.70
2018-04-14T15:05:30.085Z,101079.22
2018-04-14T15:07:57.555Z,101085.91
2018-04-14T15:10:25.041Z,101088.13
2018-04-14T15:12:52.540Z,101084.39
2018-04-14T15:15:20.061Z,101079.13
2018-04-14T15:17:47.587Z,101086.96
2018-04-14T15:20:15.074Z,101086.55
2018-04-14T15:22:42.572Z,101091.72
2018-04-14T15:25:10.064Z,101091.17
2018-04-14T15:27:37.553Z,101082.73
2018-04-14T15:30:05.071Z,101086.70
2018-04-14T15:32:32.643Z,101093.71
2018-04-14T15:35:00.221Z,101103.17
2018-04-14T15:37:27.703Z,101100.03
2018-04-14T15:39:55.154Z,101096.81
2018-04-14T15:42:22.679Z,101097.13
2018-04-14T15:44:50.161Z,101103.02
2018-04-14T15:47:17.670Z,101100.82
2018-04-14T15:49:45.203Z,101102.16
2018-04-14T15:52:12.674Z,101102.84
2018-04-14T15:54:40.146Z,101103.50
2018-04-14T15:57:07.667Z,101115.36
2018-04-14T15:59:35.268Z,101111.56
2018-04-14T16:02:02.788Z,101109.47
2018-04-14T16:04:30.333Z,101116.06
2018-04-14T16:06:57.910Z,101116.94
2018-04-14T16:09:25.596Z,101114.73
2018-04-14T16:11:53.039Z,101124.03
2018-04-14T16:14:20.565Z,101120.33
2018-04-14T16:16:48.089Z,101118.67
2018-04-14T16:19:15.575Z,101121.30
2018-04-14T16:21:43.254Z,101123.49
2018-04-14T16:24:10.756Z,101125.44
2018-04-14T16:26:38.289Z,101123.64
2018-04-14T16:29:05.837Z,101128.59
2018-04-14T16:31:33.407Z,101128.58
2018-04-14T16:34:00.964Z,101130.36
2018-04-14T16:36:28.495Z,101126.27
2018-04-14T16:38:55.998Z,101132.44
2018-04-14T16:41:23.484Z,101133.40
2018-04-14T16:43:50.980Z,101128.48
2018-04-14T16:46:18.453Z,101132.84
2018-04-14T16:48:46.244Z,101135.70
2018-04-14T16:51:14.712Z,101141.53
2018-04-14T16:53:42.456Z,101140.34
2018-04-14T16:56:10.650Z,101136.53
2018-04-14T16:58:38.533Z,101133.46
2018-04-14T17:01:06.757Z,101137.08
2018-04-14T17:03:34.251Z,101142.11
2018-04-14T17:06:02.579Z,101139.81
2018-04-14T17:08:30.085Z,101142.65
2018-04-14T17:10:57.818Z,101134.08
2018-04-14T17:13:25.991Z,101139.26
2018-04-14T17:15:53.961Z,101133.84
2018-04-14T17:18:21.705Z,101135.02
2018-04-14T17:20:49.387Z,101133.72
2018-04-14T17:23:17.797Z,101132.55
2018-04-14T17:25:45.516Z,101132.27
2018-04-14T17:28:13.000Z,101134.41
2018-04-14T17:30:40.481Z,101127.22
2018-04-14T17:33:07.989Z,101130.73
2018-04-14T17:35:35.484Z,101136.98
2018-04-14T17:38:02.995Z,101135.00
2018-04-14T17:40:30.468Z,101130.55
2018-04-14T17:42:58.023Z,101132.53
2018-04-14T17:45:25.526Z,101131.33
2018-04-14T17:47:52.990Z,101136.09
2018-04-14T17:50:20.480Z,101140.91
2018-04-14T17:52:47.959Z,101142.68
2018-04-14T17:55:15.433Z,101138.91
2018-04-14T17:57:42.977Z,101144.86
2018-04-14T18:00:10.519Z,101145.04
2018-04-14T18:02:38.010Z,101145.91
2018-04-14T18:05:05.530Z,101146.63
2018-04-14T18:07:33.187Z,101146.50
2018-04-14T18:10:00.682Z,101146.33
2018-04-14T18:12:28.160Z,101146.26
2018-04-14T18:14:55.640Z,101148.89
2018-04-14T18:17:23.196Z,101139.56
2018-04-14T18:19:50.659Z,101144.72
2018-04-14T18:22:18.191Z,101147.23
2018-04-14T18:24:45.731Z,101149.71
2018-04-14T18:27:13.213Z,101156.80
2018-04-14T18:29:40.673Z,101164.49
2018-04-14T18:32:08.148Z,101166.81
2018-04-14T18:34:35.606Z,101164.94
2018-04-14T18:37:03.082Z,101166.70
2018-04-14T18:39:30.558Z,101172.37
2018-04-14T18:41:58.136Z,101168.14
2018-04-14T18:44:25.710Z,101180.30
2018-04-14T18:46:53.221Z,101182.75
2018-04-14T18:49:20.810Z,101189.44
2018-04-14T18:51:48.280Z,101194.73
2018-04-14T18:54:15.900Z,101198.83
2018-04-14T18:56:43.398Z,101194.41
2018-04-14T18:59:10.915Z,101195.33
2018-04-14T19:01:38.442Z,101199.61
2018-04-14T19:04:05.953Z,101192.16
2018-04-14T19:06:33.541Z,101195.63
2018-04-14T19:09:01.067Z,101205.92
2018-04-14T19:11:28.659Z,101211.16
2018-04-14T19:13:56.176Z,101209.23
2018-04-14T19:16:23.706Z,101208.34
2018-04-14T19:18:51.193Z,101214.12
2018-04-14T19:21:18.671Z,101210.80
2018-04-14T19:23:46.202Z,101219.61
2018-04-14T19:26:13.753Z,101216.17
2018-04-14T19:28:41.255Z,101213.89
2018-04-14T19:31:08.733Z,101209.94
2018-04-14T19:33:36.209Z,101215.97
2018-04-14T19:36:03.715Z,101217.74
2018-04-14T19:38:31.232Z,101212.86
2018-04-14T19:40:58.805Z,101207.05
2018-04-14T19:43:26.319Z,101214.58
2018-04-14T19:45:53.839Z,101210.49
2018-04-14T19:48:21.459Z,101209.98
2018-04-14T19:50:48.971Z,101204.39
2018-04-14T19:53:16.519Z,101202.28
2018-04-14T19:55:44.018Z,101197.91
2018-04-14T19:58:11.480Z,101194.44
2018-04-14T20:00:39.060Z,101192.89
2018-04-14T20:03:06.554Z,101192.78
2018-04-14T20:05:34.026Z,101193.55
2018-04-14T20:08:01.575Z,101197.30
2018-04-14T20:10:29.168Z,101199.11
2018-04-14T20:12:56.635Z,101194.69
2018-04-14T20:15:24.097Z,101194.82
2018-04-14T20:17:51.577Z,101190.77
2018-04-14T20:20:19.067Z,101191.13
2018-04-14T20:22:46.668Z,101195.77
2018-04-14T20:25:14.203Z,101192.55
2018-04-14T20:27:41.718Z,101194.04
2018-04-14T20:30:09.260Z,101193.85
2018-04-14T20:32:36.761Z,101188.48
2018-04-14T20:35:04.284Z,101194.81
2018-04-14T20:37:31.812Z,101191.84
2018-04-14T20:39:59.268Z,101189.54
2018-04-14T20:42:26.761Z,101191.77
2018-04-14T20:44:54.301Z,101192.08
2018-04-14T20:47:21.802Z,101185.36
2018-04-14T20:49:49.290Z,101192.75
2018-04-14T20:52:16.766Z,101195.73
2018-04-14T20:54:44.296Z,101188.48
2018-04-14T20:57:11.881Z,101182.28
2018-04-14T20:59:39.359Z,101180.68
2018-04-14T21:02:06.861Z,101194.83
2018-04-14T21:04:34.403Z,101195.18
2018-04-14T21:07:01.950Z,101200.38
2018-04-14T21:09:29.476Z,101194.45
2018-04-14T21:11:56.941Z,101189.87
2018-04-14T21:14:24.491Z,101183.86
2018-04-14T21:16:51.976Z,101185.38
2018-04-14T21:19:19.448Z,101194.11
2018-04-14T21:21:46.953Z,101193.23
2018-04-14T21:24:14.489Z,101186.14
2018-04-14T21:26:42.043Z,101182.82
2018-04-14T21:29:09.644Z,101183.70
2018-04-14T21:31:37.133Z,101187.00
2018-04-14T21:34:04.657Z,101183.26
2018-04-14T21:36:32.143Z,101182.97
2018-04-14T21:38:59.632Z,101186.73
2018-04-14T21:41:27.136Z,101180.62
2018-04-14T21:43:54.660Z,101177.08
2018-04-14T21:46:22.120Z,101175.38
2018-04-14T21:48:49.609Z,101172.05
2018-04-14T21:51:17.124Z,101180.31
2018-04-14T21:53:44.607Z,101177.72
2018-04-14T21:56:12.117Z,101181.19
2018-04-14T21:58:39.636Z,101174.67
2018-04-14T22:01:07.202Z,101182.16
2018-04-14T22:03:34.705Z,101181.28
2018-04-14T22:06:02.222Z,101182.31
2018-04-14T22:08:29.695Z,101180.80
2018-04-14T22:10:57.159Z,101184.55
2018-04-14T22:13:24.647Z,101177.83
2018-04-14T22:15:52.160Z,101179.31
2018-04-14T22:18:19.668Z,101179.39
2018-04-14T22:20:47.168Z,101185.91
2018-04-14T22:23:14.661Z,101197.17
2018-04-14T22:25:42.374Z,101199.09
2018-04-14T22:28:09.902Z,101203.09
2018-04-14T22:30:37.394Z,101192.50
2018-04-14T22:33:04.919Z,101191.95
2018-04-14T22:35:32.404Z,101188.76
2018-04-14T22:37:59.972Z,101185.44
2018-04-14T22:40:27.473Z,101188.00
2018-04-14T22:42:54.981Z,101187.53
2018-04-14T22:45:22.512Z,101184.34
2018-04-14T22:47:50.025Z,101185.59
2018-04-14T22:50:17.494Z,101177.45
2018-04-14T22:52:45.012Z,101183.67
2018-04-14T22:55:12.471Z,101183.77
2018-04-14T22:57:39.975Z,101171.47
2018-04-14T23:00:07.520Z,101163.56
2018-04-14T23:02:35.071Z,101169.00
2018-04-14T23:05:02.546Z,101159.17
2018-04-14T23:07:30.169Z,101159.84
2018-04-14T23:09:57.643Z,101164.93
2018-04-14T23:12:25.225Z,101164.38
2018-04-14T23:14:52.730Z,101162.74
2018-04-14T23:17:20.294Z,101160.27
2018-04-14T23:19:47.757Z,101156.63
2018-04-14T23:22:15.281Z,101161.98
2018-04-14T23:24:42.755Z,101164.81
2018-04-14T23:27:10.253Z,101157.50
2018-04-14T23:29:37.772Z,101145.69
2018-04-14T23:32:05.307Z,101145.89
2018-04-14T23:34:32.788Z,101139.56
2018-04-14T23:37:00.327Z,101136.11
2018-04-14T23:39:27.801Z,101141.17
2018-04-14T23:41:55.346Z,101147.84
2018-04-14T23:44:22.872Z,101137.44
2018-04-14T23:46:50.335Z,101135.34
2018-04-14T23:49:17.809Z,101137.45
2018-04-14T23:51:45.272Z,101136.55
2018-04-14T23:54:12.747Z,101135.20
2018-04-14T23:56:40.341Z,101122.28
2018-04-14T23:59:07.862Z,101121.26
